createdAt,value
2017-10-12T00:00:01.034Z,0
2017-10-12T00:00:41.493Z,0
2017-10-12T00:01:21.943Z,0
2017-10-12T00:02:02.395Z,0
2017-10-12T00:02:42.829Z,0
2017-10-12T00:03:23.276Z,0
2017-10-12T00:04:03.729Z,0
2017-10-12T00:04:44.205Z,0
2017-10-12T00:05:24.638Z,0
2017-10-12T00:06:05.089Z,0
2017-10-12T00:06:45.542Z,0
2017-10-12T00:07:25.996Z,0
2017-10-12T00:08:06.447Z,0
2017-10-12T00:08:46.895Z,0
2017-10-12T00:09:27.340Z,0
2017-10-12T00:10:07.789Z,0
2017-10-12T00:10:48.242Z,0
2017-10-12T00:11:28.680Z,0
2017-10-12T00:12:09.128Z,0
2017-10-12T00:12:49.583Z,0
2017-10-12T00:13:30.037Z,0
2017-10-12T00:14:10.491Z,0
2017-10-12T00:14:50.961Z,0
2017-10-12T00:15:31.405Z,0
2017-10-12T00:16:11.854Z,0
2017-10-12T00:16:52.330Z,0
2017-10-12T00:17:32.770Z,0
2017-10-12T00:18:13.223Z,0
2017-10-12T00:18:53.678Z,0
2017-10-12T00:19:34.137Z,0
2017-10-12T00:20:14.592Z,0
2017-10-12T00:20:55.049Z,0
2017-10-12T00:23:28.015Z,0
2017-10-12T00:24:08.474Z,0
2017-10-12T00:24:48.916Z,0
2017-10-12T00:25:29.370Z,0
2017-10-12T00:26:09.828Z,0
2017-10-12T00:26:50.280Z,0
2017-10-12T00:27:30.734Z,0
2017-10-12T00:28:11.179Z,0
2017-10-12T00:28:51.620Z,0
2017-10-12T00:29:32.074Z,0
2017-10-12T00:30:12.520Z,0
2017-10-12T00:30:52.970Z,0
2017-10-12T00:31:33.423Z,0
2017-10-12T00:32:13.872Z,0
2017-10-12T00:32:54.331Z,0
2017-10-12T00:33:34.794Z,0
2017-10-12T00:34:15.240Z,0
2017-10-12T00:34:55.697Z,0
2017-10-12T00:35:36.146Z,0
2017-10-12T00:36:16.604Z,0
2017-10-12T00:36:57.068Z,0
2017-10-12T00:37:37.526Z,0
2017-10-12T00:38:17.970Z,0
2017-10-12T00:38:58.418Z,0
2017-10-12T00:39:38.870Z,0
2017-10-12T00:40:19.317Z,0
2017-10-12T00:40:59.778Z,0
2017-10-12T00:41:40.227Z,0
2017-10-12T00:42:20.683Z,0
2017-10-12T00:43:01.129Z,0
2017-10-12T00:43:41.585Z,0
2017-10-12T00:44:22.033Z,0
2017-10-12T00:45:02.491Z,0
2017-10-12T00:45:42.940Z,0
2017-10-12T00:46:23.383Z,0
2017-10-12T00:47:03.836Z,0
2017-10-12T00:47:44.282Z,0
2017-10-12T00:48:24.734Z,0
2017-10-12T00:49:05.175Z,0
2017-10-12T00:49:45.645Z,0
2017-10-12T00:50:26.100Z,0
2017-10-12T00:51:06.558Z,0
2017-10-12T00:51:47.014Z,0
2017-10-12T00:52:27.473Z,0
2017-10-12T00:53:07.934Z,0
2017-10-12T00:53:48.385Z,0
2017-10-12T00:54:28.839Z,0
2017-10-12T00:55:09.294Z,0
2017-10-12T00:55:49.737Z,0
2017-10-12T00:56:30.207Z,0
2017-10-12T00:57:10.668Z,0
2017-10-12T00:57:51.112Z,0
2017-10-12T00:58:31.563Z,0
2017-10-12T00:59:12.021Z,0
2017-10-12T00:59:52.460Z,0
2017-10-12T01:00:32.907Z,0
2017-10-12T01:01:13.382Z,0
2017-10-12T01:01:53.844Z,0
2017-10-12T01:02:34.307Z,0
2017-10-12T01:03:14.760Z,0
2017-10-12T01:03:55.213Z,0
2017-10-12T01:04:35.665Z,0
2017-10-12T01:05:16.125Z,0
2017-10-12T01:05:56.585Z,0
2017-10-12T01:06:37.068Z,0
2017-10-12T01:07:17.508Z,0
2017-10-12T01:07:57.963Z,0
2017-10-12T01:08:38.422Z,0
2017-10-12T01:09:18.866Z,0
2017-10-12T01:09:59.324Z,0
2017-10-12T01:10:39.769Z,0
2017-10-12T01:11:20.221Z,0
2017-10-12T01:12:00.676Z,0
2017-10-12T01:12:41.128Z,0
2017-10-12T01:13:21.584Z,0
2017-10-12T01:14:02.040Z,0
2017-10-12T01:14:42.493Z,0
2017-10-12T01:15:22.957Z,0
2017-10-12T01:16:03.411Z,0
2017-10-12T01:16:43.863Z,0
2017-10-12T01:17:24.321Z,0
2017-10-12T01:18:04.779Z,0
2017-10-12T01:18:45.231Z,0
2017-10-12T01:19:25.687Z,0
2017-10-12T01:20:06.151Z,0
2017-10-12T01:20:46.595Z,0
2017-10-12T01:21:27.058Z,0
2017-10-12T01:22:07.506Z,0
2017-10-12T01:22:47.967Z,0
2017-10-12T01:23:28.413Z,0
2017-10-12T01:24:08.873Z,0
2017-10-12T01:24:49.331Z,0
2017-10-12T01:25:29.794Z,0
2017-10-12T01:26:10.248Z,0
2017-10-12T01:26:50.707Z,0
2017-10-12T01:27:31.207Z,0
2017-10-12T01:28:11.659Z,0
2017-10-12T01:28:52.113Z,0
2017-10-12T01:29:32.567Z,0
2017-10-12T01:30:13.022Z,0
2017-10-12T01:30:53.468Z,0
2017-10-12T01:31:33.923Z,0
2017-10-12T01:32:14.372Z,0
2017-10-12T01:32:54.826Z,0
2017-10-12T01:33:35.280Z,0
2017-10-12T01:34:15.741Z,0
2017-10-12T01:34:56.191Z,0
2017-10-12T01:35:36.651Z,0
2017-10-12T01:36:17.103Z,0
2017-10-12T01:36:57.550Z,0
2017-10-12T01:37:38.004Z,0
2017-10-12T01:38:18.464Z,0
2017-10-12T01:38:58.915Z,0
2017-10-12T01:39:39.371Z,0
2017-10-12T01:40:19.828Z,0
2017-10-12T01:41:00.292Z,0
2017-10-12T01:41:40.735Z,0
2017-10-12T01:42:21.188Z,0
2017-10-12T01:43:01.653Z,0
2017-10-12T01:43:42.121Z,0
2017-10-12T01:44:22.580Z,0
2017-10-12T01:45:03.036Z,0
2017-10-12T01:45:43.500Z,0
2017-10-12T01:46:23.943Z,0
2017-10-12T01:47:04.402Z,0
2017-10-12T01:47:44.862Z,0
2017-10-12T01:48:25.348Z,0
2017-10-12T01:49:05.801Z,0
2017-10-12T01:49:46.250Z,0
2017-10-12T01:50:26.699Z,0
2017-10-12T01:51:07.152Z,0
2017-10-12T01:51:47.597Z,0
2017-10-12T01:52:28.046Z,0
2017-10-12T01:53:08.493Z,0
2017-10-12T01:53:48.944Z,0
2017-10-12T01:54:29.397Z,0
2017-10-12T01:55:09.846Z,0
2017-10-12T01:55:50.305Z,0
2017-10-12T01:56:30.748Z,0
2017-10-12T01:57:11.194Z,0
2017-10-12T01:57:51.644Z,0
2017-10-12T01:58:32.092Z,0
2017-10-12T01:59:12.538Z,0
2017-10-12T01:59:52.986Z,0
2017-10-12T02:00:33.434Z,0
2017-10-12T02:01:13.883Z,0
2017-10-12T02:01:54.333Z,0
2017-10-12T02:02:34.798Z,0
2017-10-12T02:03:15.246Z,0
2017-10-12T02:03:55.704Z,0
2017-10-12T02:04:36.153Z,0
2017-10-12T02:05:16.597Z,0
2017-10-12T02:05:57.056Z,0
2017-10-12T02:06:37.523Z,0
2017-10-12T02:07:17.968Z,0
2017-10-12T02:07:58.417Z,0
2017-10-12T02:08:38.864Z,0
2017-10-12T02:09:19.362Z,0
2017-10-12T02:09:59.832Z,0
2017-10-12T02:10:40.285Z,0
2017-10-12T02:11:20.735Z,0
2017-10-12T02:12:01.188Z,0
2017-10-12T02:12:41.647Z,0
2017-10-12T02:13:22.099Z,0
2017-10-12T02:14:02.558Z,0
2017-10-12T02:14:43.021Z,0
2017-10-12T02:15:23.480Z,0
2017-10-12T02:16:03.929Z,0
2017-10-12T02:16:44.393Z,0
2017-10-12T02:17:24.879Z,0
2017-10-12T02:18:05.300Z,0
2017-10-12T02:18:45.779Z,0
2017-10-12T02:19:26.207Z,0
2017-10-12T02:20:06.661Z,0
2017-10-12T02:20:47.125Z,0
2017-10-12T02:21:27.571Z,0
2017-10-12T02:22:08.026Z,0
2017-10-12T02:22:48.482Z,0
2017-10-12T02:23:28.934Z,0
2017-10-12T02:24:09.387Z,0
2017-10-12T02:24:49.836Z,0
2017-10-12T02:25:30.292Z,0
2017-10-12T02:26:10.749Z,0
2017-10-12T02:26:51.212Z,0
2017-10-12T02:27:31.666Z,0
2017-10-12T02:28:12.124Z,0
2017-10-12T02:28:52.577Z,0
2017-10-12T02:29:33.033Z,0
2017-10-12T02:30:13.493Z,0
2017-10-12T02:30:53.926Z,0
2017-10-12T02:31:34.385Z,0
2017-10-12T02:32:14.853Z,0
2017-10-12T02:32:55.294Z,0
2017-10-12T02:33:35.749Z,0
2017-10-12T02:34:16.213Z,0
2017-10-12T02:34:56.661Z,0
2017-10-12T02:35:37.128Z,0
2017-10-12T02:36:17.589Z,0
2017-10-12T02:36:58.047Z,0
2017-10-12T02:37:38.501Z,0
2017-10-12T02:38:18.955Z,0
2017-10-12T02:38:59.415Z,0
2017-10-12T02:39:39.877Z,0
2017-10-12T02:40:20.312Z,0
2017-10-12T02:41:00.777Z,0
2017-10-12T02:41:41.228Z,0
2017-10-12T02:42:21.675Z,0
2017-10-12T02:43:02.142Z,0
2017-10-12T02:43:42.597Z,0
2017-10-12T02:44:23.041Z,0
2017-10-12T02:45:03.490Z,0
2017-10-12T02:45:43.948Z,0
2017-10-12T02:46:24.413Z,0
2017-10-12T02:47:04.852Z,0
2017-10-12T02:47:45.313Z,0
2017-10-12T02:48:25.764Z,0
2017-10-12T02:49:06.221Z,0
2017-10-12T02:49:46.673Z,0
2017-10-12T02:50:27.134Z,0
2017-10-12T02:51:07.596Z,0
2017-10-12T02:51:48.067Z,0
2017-10-12T02:52:28.530Z,0
2017-10-12T02:53:08.979Z,0
2017-10-12T02:53:49.439Z,0
2017-10-12T02:54:29.891Z,0
2017-10-12T02:55:10.355Z,0
2017-10-12T02:55:50.806Z,0
2017-10-12T02:56:31.248Z,0
2017-10-12T02:57:11.702Z,0
2017-10-12T02:57:52.152Z,0
2017-10-12T02:58:32.601Z,0
2017-10-12T02:59:13.057Z,0
2017-10-12T02:59:53.514Z,0
2017-10-12T03:00:33.972Z,0
2017-10-12T03:01:14.425Z,0
2017-10-12T03:01:54.882Z,0
2017-10-12T03:02:35.341Z,0
2017-10-12T03:03:15.800Z,0
2017-10-12T03:03:56.252Z,0
2017-10-12T03:04:36.708Z,0
2017-10-12T03:05:17.157Z,0
2017-10-12T03:05:57.611Z,0
2017-10-12T03:06:38.071Z,0
2017-10-12T03:07:18.521Z,0
2017-10-12T03:07:58.970Z,0
2017-10-12T03:08:39.454Z,0
2017-10-12T03:09:19.915Z,0
2017-10-12T03:10:00.375Z,0
2017-10-12T03:10:40.829Z,0
2017-10-12T03:11:21.289Z,0
2017-10-12T03:12:01.740Z,0
2017-10-12T03:12:42.201Z,0
2017-10-12T03:13:22.656Z,0
2017-10-12T03:14:03.118Z,0
2017-10-12T03:14:43.568Z,0
2017-10-12T03:15:24.021Z,0
2017-10-12T03:16:04.481Z,0
2017-10-12T03:16:44.937Z,0
2017-10-12T03:17:25.401Z,0
2017-10-12T03:18:05.860Z,0
2017-10-12T03:18:46.318Z,0
2017-10-12T03:19:26.777Z,0
2017-10-12T03:20:07.245Z,0
2017-10-12T03:20:47.688Z,0
2017-10-12T03:21:28.144Z,0
2017-10-12T03:22:08.600Z,0
2017-10-12T03:22:49.059Z,0
2017-10-12T03:23:29.518Z,0
2017-10-12T03:24:09.974Z,0
2017-10-12T03:24:50.432Z,0
2017-10-12T03:25:30.885Z,0
2017-10-12T03:26:11.350Z,0
2017-10-12T03:26:51.795Z,0
2017-10-12T03:27:32.246Z,0
2017-10-12T03:28:12.706Z,0
2017-10-12T03:30:31.686Z,0
2017-10-12T03:31:12.300Z,0
2017-10-12T03:31:53.583Z,0
2017-10-12T03:32:34.147Z,0
2017-10-12T03:33:14.706Z,0
2017-10-12T03:33:55.107Z,0
2017-10-12T03:34:35.532Z,0
2017-10-12T03:35:15.982Z,0
2017-10-12T03:35:56.445Z,0
2017-10-12T03:36:36.894Z,0
2017-10-12T03:37:17.354Z,0
2017-10-12T03:37:57.804Z,0
2017-10-12T03:38:38.261Z,0
2017-10-12T03:39:18.725Z,0
2017-10-12T03:39:59.189Z,0
2017-10-12T03:40:39.649Z,0
2017-10-12T03:41:20.090Z,0
2017-10-12T03:42:00.532Z,0
2017-10-12T03:42:40.984Z,0
2017-10-12T03:43:21.435Z,0
2017-10-12T03:44:01.902Z,0
2017-10-12T03:44:42.341Z,0
2017-10-12T03:45:22.789Z,0
2017-10-12T03:46:03.237Z,0
2017-10-12T03:46:43.690Z,0
2017-10-12T03:47:24.143Z,0
2017-10-12T03:48:04.603Z,0
2017-10-12T03:48:45.054Z,0
2017-10-12T03:49:25.511Z,0
2017-10-12T03:50:05.965Z,0
2017-10-12T03:50:46.434Z,0
2017-10-12T03:51:26.896Z,0
2017-10-12T03:52:07.353Z,0
2017-10-12T03:52:47.795Z,0
2017-10-12T03:53:28.256Z,0
2017-10-12T03:54:08.711Z,0
2017-10-12T03:54:49.169Z,0
2017-10-12T03:55:29.632Z,0
2017-10-12T03:56:10.096Z,0
2017-10-12T03:56:50.547Z,0
2017-10-12T03:57:30.999Z,0
2017-10-12T03:58:11.452Z,0
2017-10-12T03:58:51.922Z,0
2017-10-12T03:59:32.378Z,0
2017-10-12T04:00:12.831Z,0
2017-10-12T04:00:53.275Z,0
2017-10-12T04:01:33.716Z,0
2017-10-12T04:02:14.173Z,0
2017-10-12T04:02:54.626Z,0
2017-10-12T04:03:35.104Z,0
2017-10-12T04:04:15.551Z,0
2017-10-12T04:04:56.007Z,0
2017-10-12T04:05:36.467Z,0
2017-10-12T04:06:16.923Z,0
2017-10-12T04:06:57.373Z,0
2017-10-12T04:07:37.827Z,0
2017-10-12T04:08:18.276Z,0
2017-10-12T04:08:58.724Z,0
2017-10-12T04:09:39.179Z,0
2017-10-12T04:10:19.634Z,0
2017-10-12T04:11:00.092Z,0
2017-10-12T04:11:40.548Z,0
2017-10-12T04:12:21.004Z,0
2017-10-12T04:13:01.458Z,0
2017-10-12T04:13:41.906Z,0
2017-10-12T04:14:22.357Z,0
2017-10-12T04:15:02.808Z,0
2017-10-12T04:15:43.260Z,0
2017-10-12T04:16:23.706Z,0
2017-10-12T04:17:04.155Z,0
2017-10-12T04:17:44.608Z,0
2017-10-12T04:18:25.066Z,0
2017-10-12T04:19:05.524Z,0
2017-10-12T04:19:45.974Z,0
2017-10-12T04:20:26.435Z,0
2017-10-12T04:21:06.877Z,0
2017-10-12T04:21:47.330Z,0
2017-10-12T04:22:27.780Z,0
2017-10-12T04:23:08.233Z,0
2017-10-12T04:23:48.687Z,0
2017-10-12T04:24:29.140Z,0
2017-10-12T04:25:09.591Z,0
2017-10-12T04:25:50.050Z,0
2017-10-12T04:26:30.504Z,0
2017-10-12T04:27:10.950Z,0
2017-10-12T04:27:51.396Z,0
2017-10-12T04:28:31.846Z,0
2017-10-12T04:29:12.295Z,0
2017-10-12T04:29:52.750Z,0
2017-10-12T04:30:33.205Z,0
2017-10-12T04:31:13.659Z,0
2017-10-12T04:31:54.117Z,0
2017-10-12T04:32:34.578Z,0
2017-10-12T04:33:15.026Z,0
2017-10-12T04:33:55.481Z,0
2017-10-12T04:34:35.934Z,0
2017-10-12T04:35:16.386Z,0
2017-10-12T04:35:56.842Z,0
2017-10-12T04:36:37.295Z,0
2017-10-12T04:37:17.745Z,0
2017-10-12T04:37:58.191Z,0
2017-10-12T04:38:38.639Z,0
2017-10-12T04:39:19.095Z,0
2017-10-12T04:39:59.547Z,0
2017-10-12T04:40:40.001Z,0
2017-10-12T04:41:20.456Z,0
2017-10-12T04:42:00.914Z,0
2017-10-12T04:42:41.369Z,0
2017-10-12T04:43:21.813Z,0
2017-10-12T04:44:02.259Z,0
2017-10-12T04:44:42.715Z,0
2017-10-12T04:45:23.161Z,0
2017-10-12T04:46:03.611Z,0
2017-10-12T04:46:44.084Z,0
2017-10-12T04:47:24.546Z,0
2017-10-12T04:48:04.998Z,0
2017-10-12T04:48:45.468Z,0
2017-10-12T04:49:25.884Z,0
2017-10-12T04:50:06.341Z,0
2017-10-12T04:50:46.791Z,0
2017-10-12T04:51:27.252Z,0
2017-10-12T04:52:07.704Z,0
2017-10-12T04:52:48.150Z,0
2017-10-12T04:53:28.607Z,0
2017-10-12T04:54:09.071Z,0
2017-10-12T04:54:49.552Z,0
2017-10-12T04:55:29.983Z,0
2017-10-12T04:56:10.454Z,0
2017-10-12T04:56:50.906Z,0
2017-10-12T04:57:31.361Z,0
2017-10-12T04:58:11.816Z,0
2017-10-12T04:58:52.272Z,0
2017-10-12T04:59:32.728Z,0
2017-10-12T05:00:13.182Z,0
2017-10-12T05:00:53.635Z,0
2017-10-12T05:01:34.101Z,0
2017-10-12T05:02:14.547Z,0
2017-10-12T05:02:54.996Z,0
2017-10-12T05:03:35.450Z,0
2017-10-12T05:04:15.912Z,0
2017-10-12T05:04:56.368Z,0
2017-10-12T05:05:36.821Z,0
2017-10-12T05:06:17.279Z,0
2017-10-12T05:06:57.734Z,0
2017-10-12T05:07:38.186Z,0
2017-10-12T05:08:18.643Z,0
2017-10-12T05:08:59.129Z,0
2017-10-12T05:09:39.580Z,0
2017-10-12T05:10:20.037Z,0
2017-10-12T05:11:00.485Z,0
2017-10-12T05:11:40.934Z,0
2017-10-12T05:12:21.377Z,0
2017-10-12T05:13:01.839Z,0
2017-10-12T05:13:42.293Z,0
2017-10-12T05:14:22.754Z,0
2017-10-12T05:15:03.203Z,0
2017-10-12T05:15:43.650Z,0
2017-10-12T05:16:24.087Z,0
2017-10-12T05:17:04.542Z,0
2017-10-12T05:17:44.993Z,0
2017-10-12T05:18:25.473Z,0
2017-10-12T05:19:05.931Z,0
2017-10-12T05:19:46.389Z,0
2017-10-12T05:20:26.842Z,0
2017-10-12T05:21:07.302Z,0
2017-10-12T05:21:47.759Z,0
2017-10-12T05:22:28.216Z,0
2017-10-12T05:23:08.668Z,0
2017-10-12T05:23:49.120Z,0
2017-10-12T05:24:29.567Z,0
2017-10-12T05:25:10.024Z,0
2017-10-12T05:25:50.478Z,0
2017-10-12T05:26:30.949Z,0
2017-10-12T05:27:11.400Z,0
2017-10-12T05:27:51.861Z,0
2017-10-12T05:28:32.313Z,0
2017-10-12T05:29:12.765Z,0
2017-10-12T05:29:53.221Z,0
2017-10-12T05:30:33.677Z,0
2017-10-12T05:31:14.147Z,0
2017-10-12T05:31:54.591Z,0
2017-10-12T05:32:35.051Z,0
2017-10-12T05:33:15.500Z,0
2017-10-12T05:33:55.943Z,0
2017-10-12T05:34:36.369Z,0
2017-10-12T05:35:16.830Z,0
2017-10-12T05:35:57.295Z,0
2017-10-12T05:36:37.748Z,0
2017-10-12T05:37:18.190Z,0
2017-10-12T05:37:58.647Z,0
2017-10-12T05:38:39.098Z,0
2017-10-12T05:39:19.542Z,0
2017-10-12T05:39:59.998Z,0
2017-10-12T05:40:40.458Z,0
2017-10-12T05:41:20.917Z,0
2017-10-12T05:42:01.369Z,0
2017-10-12T05:42:41.825Z,0
2017-10-12T05:43:22.299Z,0
2017-10-12T05:44:03.123Z,0
2017-10-12T05:44:43.577Z,0
2017-10-12T05:45:24.032Z,0
2017-10-12T05:46:04.478Z,0
2017-10-12T05:46:44.930Z,0
2017-10-12T05:47:25.381Z,0
2017-10-12T05:48:06.009Z,0
2017-10-12T05:48:46.460Z,0
2017-10-12T05:49:27.241Z,0
2017-10-12T05:50:07.731Z,0
2017-10-12T05:50:48.206Z,0
2017-10-12T05:51:28.976Z,0
2017-10-12T05:52:09.402Z,0
2017-10-12T05:52:50.126Z,0
2017-10-12T05:53:30.578Z,0
2017-10-12T05:54:11.030Z,0
2017-10-12T05:54:51.530Z,0
2017-10-12T05:55:32.053Z,0
2017-10-12T05:56:12.536Z,0
2017-10-12T05:56:52.996Z,0
2017-10-12T05:57:33.451Z,0
2017-10-12T05:58:13.905Z,0
2017-10-12T05:58:54.361Z,0
2017-10-12T05:59:34.809Z,0
2017-10-12T06:00:15.262Z,0
2017-10-12T06:00:55.716Z,0
2017-10-12T06:01:36.177Z,0
2017-10-12T06:02:16.626Z,0
2017-10-12T06:02:57.083Z,0
2017-10-12T06:03:37.530Z,0
2017-10-12T06:04:17.984Z,4
2017-10-12T06:04:58.455Z,4
2017-10-12T06:05:38.901Z,4
2017-10-12T06:06:19.361Z,4
2017-10-12T06:06:59.807Z,4
2017-10-12T06:07:40.260Z,0
2017-10-12T06:08:20.717Z,0
2017-10-12T06:09:01.175Z,0
2017-10-12T06:09:41.627Z,0
2017-10-12T06:10:22.085Z,0
2017-10-12T06:11:02.542Z,4
2017-10-12T06:11:43.000Z,4
2017-10-12T06:12:23.450Z,4
2017-10-12T06:13:03.897Z,0
2017-10-12T06:13:44.350Z,0
2017-10-12T06:14:24.800Z,0
2017-10-12T06:15:05.252Z,0
2017-10-12T06:15:45.693Z,0
2017-10-12T06:16:26.144Z,0
2017-10-12T06:17:06.600Z,4
2017-10-12T06:17:47.066Z,4
2017-10-12T06:18:27.520Z,0
2017-10-12T06:19:07.981Z,0
2017-10-12T06:19:48.435Z,0
2017-10-12T06:20:28.891Z,0
2017-10-12T06:21:09.357Z,0
2017-10-12T06:21:49.814Z,0
2017-10-12T06:22:30.242Z,0
2017-10-12T06:23:10.701Z,4
2017-10-12T06:23:51.154Z,4
2017-10-12T06:24:31.611Z,4
2017-10-12T06:25:12.065Z,4
2017-10-12T06:25:52.513Z,0
2017-10-12T06:26:32.974Z,0
2017-10-12T06:27:13.406Z,0
2017-10-12T06:27:53.866Z,0
2017-10-12T06:28:34.323Z,0
2017-10-12T06:29:14.783Z,0
2017-10-12T06:29:55.243Z,4
2017-10-12T06:30:35.709Z,4
2017-10-12T06:31:16.168Z,4
2017-10-12T06:31:56.622Z,0
2017-10-12T06:32:37.078Z,0
2017-10-12T06:33:17.525Z,0
2017-10-12T06:33:57.974Z,0
2017-10-12T06:34:38.424Z,0
2017-10-12T06:35:18.890Z,0
2017-10-12T06:35:59.334Z,0
2017-10-12T06:36:39.784Z,0
2017-10-12T06:37:20.232Z,0
2017-10-12T06:38:00.690Z,0
2017-10-12T06:38:41.141Z,0
2017-10-12T06:39:21.590Z,4
2017-10-12T06:40:02.399Z,4
2017-10-12T06:40:42.846Z,4
2017-10-12T06:41:23.288Z,4
2017-10-12T06:42:03.744Z,4
2017-10-12T06:42:44.193Z,4
2017-10-12T06:43:24.661Z,4
2017-10-12T06:44:05.104Z,4
2017-10-12T06:44:45.562Z,0
2017-10-12T06:45:26.014Z,0
2017-10-12T06:46:06.476Z,4
2017-10-12T06:46:46.924Z,4
2017-10-12T06:47:27.379Z,0
2017-10-12T06:48:07.831Z,0
2017-10-12T06:48:48.289Z,4
2017-10-12T06:49:28.750Z,4
2017-10-12T06:50:09.581Z,4
2017-10-12T06:50:50.034Z,0
2017-10-12T06:51:30.499Z,4
2017-10-12T06:52:10.958Z,4
2017-10-12T06:52:51.419Z,4
2017-10-12T06:53:31.886Z,4
2017-10-12T06:54:12.346Z,4
2017-10-12T06:54:52.807Z,4
2017-10-12T06:55:33.264Z,4
2017-10-12T06:56:13.713Z,8
2017-10-12T06:56:54.165Z,4
2017-10-12T06:57:34.629Z,4
2017-10-12T06:58:15.093Z,4
2017-10-12T06:58:55.550Z,4
2017-10-12T06:59:36.011Z,4
2017-10-12T07:00:16.485Z,8
2017-10-12T07:00:56.949Z,8
2017-10-12T07:01:37.407Z,8
2017-10-12T07:02:17.905Z,8
2017-10-12T07:02:58.362Z,8
2017-10-12T07:03:38.820Z,8
2017-10-12T07:04:19.277Z,8
2017-10-12T07:04:59.732Z,8
2017-10-12T07:05:40.190Z,20
2017-10-12T07:06:20.653Z,16
2017-10-12T07:07:01.101Z,24
2017-10-12T07:07:41.552Z,28
2017-10-12T07:08:22.010Z,28
2017-10-12T07:09:02.467Z,28
2017-10-12T07:09:42.928Z,16
2017-10-12T07:10:23.383Z,344
2017-10-12T07:11:03.856Z,384
2017-10-12T07:11:44.294Z,400
2017-10-12T07:12:24.747Z,404
2017-10-12T07:13:05.213Z,420
2017-10-12T07:13:45.668Z,436
2017-10-12T07:14:26.118Z,424
2017-10-12T07:15:06.578Z,500
2017-10-12T07:15:47.037Z,436
2017-10-12T07:16:27.485Z,420
2017-10-12T07:17:07.951Z,416
2017-10-12T07:17:48.395Z,420
2017-10-12T07:18:28.846Z,404
2017-10-12T07:19:09.301Z,364
2017-10-12T07:19:49.761Z,376
2017-10-12T07:20:30.212Z,368
2017-10-12T07:21:10.669Z,400
2017-10-12T07:21:51.127Z,476
2017-10-12T07:22:31.584Z,476
2017-10-12T07:23:12.039Z,420
2017-10-12T07:23:52.495Z,368
2017-10-12T07:24:32.944Z,332
2017-10-12T07:25:13.400Z,320
2017-10-12T07:25:53.858Z,324
2017-10-12T07:26:34.327Z,332
2017-10-12T07:27:14.778Z,336
2017-10-12T07:27:55.227Z,336
2017-10-12T07:28:35.686Z,336
2017-10-12T07:29:16.136Z,336
2017-10-12T07:29:56.594Z,336
2017-10-12T07:30:37.040Z,340
2017-10-12T07:31:17.493Z,344
2017-10-12T07:31:57.960Z,352
2017-10-12T07:32:38.411Z,352
2017-10-12T07:33:18.856Z,340
2017-10-12T07:33:59.315Z,328
2017-10-12T07:34:39.774Z,308
2017-10-12T07:35:20.239Z,304
2017-10-12T07:36:00.688Z,292
2017-10-12T07:36:41.149Z,284
2017-10-12T07:37:21.601Z,300
2017-10-12T07:38:02.063Z,340
2017-10-12T07:38:42.525Z,408
2017-10-12T07:39:22.983Z,492
2017-10-12T07:40:03.435Z,644
2017-10-12T07:40:43.898Z,972
2017-10-12T07:41:24.340Z,624
2017-10-12T07:42:04.800Z,648
2017-10-12T07:42:45.252Z,756
2017-10-12T07:43:25.706Z,2588
2017-10-12T07:44:06.162Z,1164
2017-10-12T07:44:46.628Z,3124
2017-10-12T07:45:27.079Z,1960
2017-10-12T07:46:07.537Z,804
2017-10-12T07:46:48.021Z,784
2017-10-12T07:47:28.500Z,548
2017-10-12T07:48:08.959Z,448
2017-10-12T07:48:49.407Z,440
2017-10-12T07:49:29.873Z,472
2017-10-12T07:50:10.336Z,860
2017-10-12T07:50:50.791Z,900
2017-10-12T07:51:31.250Z,956
2017-10-12T07:52:11.715Z,760
2017-10-12T07:52:52.188Z,664
2017-10-12T07:53:32.642Z,604
2017-10-12T07:54:13.302Z,684
2017-10-12T07:54:55.670Z,2544
2017-10-12T07:55:40.044Z,5340
2017-10-12T07:56:27.812Z,1456
2017-10-12T07:57:09.039Z,1604
2017-10-12T07:57:49.484Z,2520
2017-10-12T07:58:30.689Z,4648
2017-10-12T07:59:12.330Z,5148
2017-10-12T08:01:31.437Z,4952
2017-10-12T08:02:11.943Z,5592
2017-10-12T08:02:52.515Z,5344
2017-10-12T08:03:32.979Z,4664
2017-10-12T08:04:13.426Z,3688
2017-10-12T08:04:53.889Z,4856
2017-10-12T08:05:34.344Z,3436
2017-10-12T08:06:14.798Z,3252
2017-10-12T08:06:55.247Z,1328
2017-10-12T08:07:35.735Z,1068
2017-10-12T08:08:16.210Z,760
2017-10-12T08:08:56.661Z,688
2017-10-12T08:09:37.113Z,668
2017-10-12T08:10:17.566Z,736
2017-10-12T08:10:58.045Z,768
2017-10-12T08:11:38.494Z,928
2017-10-12T08:12:19.099Z,932
2017-10-12T08:12:59.482Z,2920
2017-10-12T08:13:39.938Z,3352
2017-10-12T08:14:20.389Z,2948
2017-10-12T08:15:00.856Z,3728
2017-10-12T08:15:41.285Z,4356
2017-10-12T08:16:21.731Z,5164
2017-10-12T08:17:02.184Z,3612
2017-10-12T08:17:42.635Z,1168
2017-10-12T08:18:23.370Z,904
2017-10-12T08:19:03.840Z,820
2017-10-12T08:19:44.296Z,964
2017-10-12T08:20:24.755Z,1200
2017-10-12T08:21:05.924Z,1564
2017-10-12T08:21:46.378Z,1188
2017-10-12T08:22:26.841Z,776
2017-10-12T08:23:07.290Z,684
2017-10-12T08:23:47.749Z,892
2017-10-12T08:24:28.214Z,1584
2017-10-12T08:25:08.658Z,3156
2017-10-12T08:25:49.113Z,1748
2017-10-12T08:26:29.657Z,5080
2017-10-12T08:27:10.123Z,4948
2017-10-12T08:27:50.593Z,4940
2017-10-12T08:28:31.034Z,4892
2017-10-12T08:29:11.484Z,4864
2017-10-12T08:29:51.936Z,4852
2017-10-12T08:30:32.398Z,4708
2017-10-12T08:31:12.851Z,4876
2017-10-12T08:31:53.287Z,4824
2017-10-12T08:32:33.744Z,5008
2017-10-12T08:33:14.176Z,5004
2017-10-12T08:33:54.617Z,2024
2017-10-12T08:34:35.069Z,2344
2017-10-12T08:35:15.519Z,1796
2017-10-12T08:37:13.221Z,5060
2017-10-12T08:37:53.669Z,4896
2017-10-12T08:38:34.112Z,4952
2017-10-12T08:39:14.543Z,4764
2017-10-12T08:39:54.985Z,4900
2017-10-12T08:40:35.430Z,4984
2017-10-12T08:41:15.864Z,4820
2017-10-12T08:41:56.467Z,4472
2017-10-12T08:42:36.961Z,4792
2017-10-12T08:43:17.414Z,5112
2017-10-12T08:43:57.872Z,5068
2017-10-12T08:44:38.333Z,5156
2017-10-12T08:45:18.776Z,5132
2017-10-12T08:45:59.236Z,5044
2017-10-12T08:46:39.786Z,5052
2017-10-12T08:47:20.196Z,5052
2017-10-12T08:48:00.796Z,4264
2017-10-12T08:48:41.217Z,5076
2017-10-12T08:49:21.672Z,4968
2017-10-12T08:50:02.146Z,5244
2017-10-12T08:50:42.827Z,5136
2017-10-12T08:51:23.282Z,5208
2017-10-12T08:52:03.738Z,5256
2017-10-12T08:52:44.261Z,5112
2017-10-12T08:53:24.680Z,4648
2017-10-12T08:54:05.134Z,5136
2017-10-12T08:54:45.591Z,5148
2017-10-12T08:55:26.043Z,5104
2017-10-12T08:56:06.542Z,4512
2017-10-12T08:56:46.937Z,5548
2017-10-12T08:57:27.380Z,5096
2017-10-12T08:58:07.813Z,5408
2017-10-12T08:58:48.257Z,1140
2017-10-12T08:59:28.706Z,868
2017-10-12T09:00:09.161Z,5412
2017-10-12T09:00:49.614Z,5364
2017-10-12T09:01:30.069Z,3792
2017-10-12T09:02:10.527Z,5156
2017-10-12T09:02:50.977Z,5524
2017-10-12T09:03:31.432Z,3868
2017-10-12T09:04:11.878Z,1236
2017-10-12T09:04:52.345Z,1192
2017-10-12T09:05:32.807Z,5736
2017-10-12T09:06:13.259Z,5480
2017-10-12T09:06:53.714Z,4296
2017-10-12T09:07:34.225Z,872
2017-10-12T09:08:14.743Z,948
2017-10-12T09:08:55.213Z,656
2017-10-12T09:09:35.652Z,644
2017-10-12T09:10:16.094Z,5292
2017-10-12T09:10:56.538Z,4968
2017-10-12T09:11:36.969Z,5308
2017-10-12T09:12:17.398Z,5544
2017-10-12T09:12:57.850Z,5480
2017-10-12T09:13:38.298Z,5408
2017-10-12T09:14:19.022Z,5488
2017-10-12T09:16:46.776Z,5380
2017-10-12T09:17:27.227Z,5436
2017-10-12T09:18:07.679Z,5404
2017-10-12T09:18:48.143Z,5492
2017-10-12T09:20:45.825Z,5632
2017-10-12T09:21:26.287Z,2728
2017-10-12T09:22:06.716Z,5768
2017-10-12T09:22:47.212Z,5604
2017-10-12T09:23:27.662Z,2972
2017-10-12T09:24:08.432Z,5708
2017-10-12T09:24:48.879Z,3800
2017-10-12T09:25:29.334Z,5760
2017-10-12T09:26:09.797Z,1064
2017-10-12T09:26:50.214Z,3096
2017-10-12T09:27:30.707Z,4312
2017-10-12T09:28:11.191Z,2276
2017-10-12T09:28:51.633Z,1376
2017-10-12T09:29:32.119Z,5084
2017-10-12T09:30:12.573Z,5952
2017-10-12T09:30:53.029Z,876
2017-10-12T09:31:33.486Z,5452
2017-10-12T09:32:13.973Z,1052
2017-10-12T09:32:54.429Z,5924
2017-10-12T09:33:34.888Z,5568
2017-10-12T09:34:15.336Z,5036
2017-10-12T09:34:57.187Z,1064
2017-10-12T09:35:36.279Z,5760
2017-10-12T09:36:16.706Z,728
2017-10-12T09:36:57.166Z,764
2017-10-12T09:37:37.626Z,1176
2017-10-12T09:38:18.090Z,5652
2017-10-12T09:38:58.540Z,1140
2017-10-12T09:39:39.003Z,952
2017-10-12T09:40:19.481Z,1540
2017-10-12T09:40:59.895Z,784
2017-10-12T09:41:40.348Z,616
2017-10-12T09:42:20.796Z,608
2017-10-12T09:43:01.248Z,624
2017-10-12T09:43:41.706Z,620
2017-10-12T09:44:22.159Z,656
2017-10-12T09:45:02.600Z,780
2017-10-12T09:45:43.050Z,1912
2017-10-12T09:46:23.506Z,1192
2017-10-12T09:47:03.965Z,5688
2017-10-12T09:47:44.424Z,5148
2017-10-12T09:48:24.881Z,5676
2017-10-12T09:49:05.336Z,5556
2017-10-12T09:49:45.790Z,5564
2017-10-12T09:50:26.243Z,5544
2017-10-12T09:51:06.744Z,5552
2017-10-12T09:51:47.204Z,5716
2017-10-12T09:52:27.633Z,4872